Time;durP1;ratioP1;P1;durP2;ratioP2;P2;SDS_P1;SDS_P2;PMS_P1;PMS_P2;Temp;Humidity;BMP_temperature;BMP_pressure;BME280_temperature;BME280_humidity;BME280_pressure;Samples;Min_cycle;Max_cycle;Signal;HPM_P1;HPM_P2
2023/04/07 00:02:15;;;;;;;8.88;2.58;;;;;;;;;;4961327;28;20026;-73
2023/04/07 00:04:43;;;;;;;7.28;2.47;;;;;;;;;;4943230;28;20026;-70
2023/04/07 00:07:11;;;;;;;9.25;2.95;;;;;;;;;;4955952;28;20034;-70
2023/04/07 00:09:39;;;;;;;7.40;2.70;;;;;;;;;;4941709;28;20368;-70
2023/04/07 00:12:06;;;;;;;7.68;2.72;;;;;;;;;;4960659;28;20129;-70
2023/04/07 00:14:34;;;;;;;9.13;2.42;;;;;;;;;;4961613;28;20030;-70
2023/04/07 00:17:03;;;;;;;8.32;2.40;;;;;;;;;;4956345;28;20089;-70
2023/04/07 00:19:32;;;;;;;8.20;2.38;;;;;;;;;;4916109;28;20051;-72
2023/04/07 00:22:00;;;;;;;8.43;2.20;;;;;;;;;;4904593;29;20091;-70
2023/04/07 00:24:27;;;;;;;10.02;2.38;;;;;;;;;;4919798;28;20042;-71
2023/04/07 00:26:55;;;;;;;8.15;2.33;;;;;;;;;;4912599;28;20063;-70
2023/04/07 00:29:24;;;;;;;9.82;2.38;;;;;;;;;;4911418;28;20039;-70
2023/04/07 00:31:53;;;;;;;8.55;2.22;;;;;;;;;;4897074;29;20067;-71
2023/04/07 00:34:20;;;;;;;7.95;2.03;;;;;;;;;;4911709;28;20078;-71
2023/04/07 00:36:51;;;;;;;8.38;2.20;;;;;;;;;;4911490;28;20550;-70
2023/04/07 00:39:20;;;;;;;7.03;2.20;;;;;;;;;;4913726;28;20121;-70
2023/04/07 00:41:50;;;;;;;8.10;2.50;;;;;;;;;;4918824;28;20575;-71
2023/04/07 00:44:18;;;;;;;7.82;2.42;;;;;;;;;;4914899;28;20035;-70
2023/04/07 00:46:56;;;;;;;8.63;2.40;;;;;;;;;;4920187;28;20589;-70
2023/04/07 00:49:23;;;;;;;8.60;2.47;;;;;;;;;;4916747;28;20450;-71
2023/04/07 00:51:51;;;;;;;7.40;1.80;;;;;;;;;;4913128;28;20087;-70
2023/04/07 00:54:19;;;;;;;9.57;2.38;;;;;;;;;;4919126;28;20042;-70
2023/04/07 00:56:48;;;;;;;7.30;2.17;;;;;;;;;;4918330;28;20046;-71
2023/04/07 00:59:17;;;;;;;9.13;2.10;;;;;;;;;;4916103;28;20098;-70
2023/04/07 01:02:16;;;;;;;7.63;2.20;;;;;;;;;;4917673;28;20110;-71
2023/04/07 01:05:09;;;;;;;8.32;2.35;;;;;;;;;;4831245;29;20048;-70
2023/04/07 01:07:43;;;;;;;7.43;2.08;;;;;;;;;;4843516;29;20053;-70
2023/04/07 01:10:12;;;;;;;8.18;2.28;;;;;;;;;;4862421;29;20049;-71
2023/04/07 01:12:54;;;;;;;7.85;1.90;;;;;;;;;;4883568;29;20040;-71
2023/04/07 01:15:24;;;;;;;8.30;2.22;;;;;;;;;;4868834;29;20748;-71
2023/04/07 01:18:03;;;;;;;8.48;2.35;;;;;;;;;;4879083;29;20032;-71
2023/04/07 01:20:34;;;;;;;6.28;2.00;;;;;;;;;;4882450;29;20040;-71
2023/04/07 01:23:07;;;;;;;5.68;1.67;;;;;;;;;;4880136;29;20803;-71
2023/04/07 01:25:54;;;;;;;6.85;1.70;;;;;;;;;;4882921;29;20050;-70
2023/04/07 01:28:41;;;;;;;7.30;1.92;;;;;;;;;;4883469;29;20574;-71
2023/04/07 01:31:09;;;;;;;9.02;2.20;;;;;;;;;;4882453;29;20830;-71
2023/04/07 01:33:37;;;;;;;7.57;1.92;;;;;;;;;;4885579;29;20052;-71
2023/04/07 01:36:06;;;;;;;7.82;2.28;;;;;;;;;;4880122;29;20440;-70
2023/04/07 01:38:38;;;;;;;7.88;2.05;;;;;;;;;;4869979;29;20044;-70
2023/04/07 01:41:06;;;;;;;6.97;1.88;;;;;;;;;;4938811;28;20555;-70
2023/04/07 01:43:35;;;;;;;9.85;2.50;;;;;;;;;;4961295;28;20124;-70
2023/04/07 01:46:04;;;;;;;4.68;1.60;;;;;;;;;;4953547;28;20061;-70
2023/04/07 01:48:32;;;;;;;6.70;1.58;;;;;;;;;;4925171;28;20034;-70
2023/04/07 01:51:01;;;;;;;7.18;1.50;;;;;;;;;;4934626;28;20038;-70
2023/04/07 01:53:31;;;;;;;6.60;1.75;;;;;;;;;;4947440;28;20045;-71
2023/04/07 01:55:58;;;;;;;4.70;1.60;;;;;;;;;;4948931;28;20019;-71
2023/04/07 01:58:26;;;;;;;5.55;1.50;;;;;;;;;;4956540;28;20031;-71
2023/04/07 02:00:53;;;;;;;8.23;2.00;;;;;;;;;;4954722;28;20464;-72
2023/04/07 02:03:39;;;;;;;6.25;1.75;;;;;;;;;;4956188;28;20074;-71
2023/04/07 02:06:07;;;;;;;6.47;2.38;;;;;;;;;;4955447;28;20576;-71
2023/04/07 02:08:40;;;;;;;9.32;3.00;;;;;;;;;;4940846;28;20070;-71
2023/04/07 02:11:19;;;;;;;9.75;3.38;;;;;;;;;;4960681;28;20568;-71
2023/04/07 02:13:48;;;;;;;9.50;3.88;;;;;;;;;;4943430;28;20050;-70
2023/04/07 02:16:16;;;;;;;8.75;3.58;;;;;;;;;;4960095;28;20445;-71
2023/04/07 02:18:44;;;;;;;8.45;3.15;;;;;;;;;;4940994;28;20069;-71
2023/04/07 02:21:13;;;;;;;8.80;3.17;;;;;;;;;;4958396;28;20030;-70
2023/04/07 02:23:42;;;;;;;10.23;3.08;;;;;;;;;;4956627;28;20128;-71
2023/04/07 02:26:09;;;;;;;10.90;3.50;;;;;;;;;;4935678;28;20211;-70
2023/04/07 02:28:38;;;;;;;8.40;3.13;;;;;;;;;;4958021;28;20824;-71
2023/04/07 02:31:07;;;;;;;8.60;2.72;;;;;;;;;;4956398;28;20042;-71
2023/04/07 02:33:35;;;;;;;6.38;1.95;;;;;;;;;;4942679;28;20465;-71
2023/04/07 02:36:04;;;;;;;7.28;2.20;;;;;;;;;;4935553;28;20534;-70
2023/04/07 02:38:34;;;;;;;6.53;2.00;;;;;;;;;;4955194;28;20240;-70
2023/04/07 02:41:02;;;;;;;6.90;2.00;;;;;;;;;;4951450;28;20409;-71
2023/04/07 02:43:30;;;;;;;6.00;1.80;;;;;;;;;;4952038;28;20568;-70
2023/04/07 02:45:57;;;;;;;6.50;1.75;;;;;;;;;;4948501;28;20872;-71
2023/04/07 02:48:25;;;;;;;5.80;1.88;;;;;;;;;;4938131;28;20458;-71
2023/04/07 02:50:51;;;;;;;6.47;1.60;;;;;;;;;;4950077;28;20046;-70
2023/04/07 02:53:17;;;;;;;7.70;2.00;;;;;;;;;;4958682;28;20030;-70
2023/04/07 02:55:48;;;;;;;6.22;1.55;;;;;;;;;;4943100;28;20050;-71
2023/04/07 02:58:15;;;;;;;6.20;1.77;;;;;;;;;;4938308;28;20472;-71
2023/04/07 03:00:43;;;;;;;5.88;1.52;;;;;;;;;;4958379;28;20030;-71
2023/04/07 03:03:16;;;;;;;5.50;1.40;;;;;;;;;;4957897;28;20415;-71
2023/04/07 03:05:44;;;;;;;4.85;1.50;;;;;;;;;;4958234;28;20056;-72
2023/04/07 03:08:15;;;;;;;4.60;1.40;;;;;;;;;;4936471;28;20700;-71
2023/04/07 03:10:42;;;;;;;6.88;1.70;;;;;;;;;;4962768;28;20726;-71
2023/04/07 03:13:15;;;;;;;5.85;1.73;;;;;;;;;;4960806;28;20472;-72
2023/04/07 03:15:43;;;;;;;5.57;1.77;;;;;;;;;;4957491;28;20042;-72
2023/04/07 03:18:10;;;;;;;4.20;1.30;;;;;;;;;;4958773;28;20057;-72
2023/04/07 03:20:40;;;;;;;5.95;1.67;;;;;;;;;;4958807;28;20377;-72
2023/04/07 03:23:07;;;;;;;4.50;1.50;;;;;;;;;;4960983;28;20047;-72
2023/04/07 03:25:36;;;;;;;5.43;1.40;;;;;;;;;;4943599;28;20055;-72
2023/04/07 03:28:05;;;;;;;5.65;1.55;;;;;;;;;;4954773;28;20120;-72
2023/04/07 03:30:32;;;;;;;4.80;1.30;;;;;;;;;;4960656;28;20026;-72
2023/04/07 03:33:00;;;;;;;6.80;1.50;;;;;;;;;;4956958;28;20039;-72
2023/04/07 03:35:27;;;;;;;5.50;1.80;;;;;;;;;;4961801;28;20509;-72
2023/04/07 03:37:56;;;;;;;6.07;1.70;;;;;;;;;;4959579;28;20022;-72
2023/04/07 03:40:24;;;;;;;7.93;1.77;;;;;;;;;;4962674;28;20447;-72
2023/04/07 03:42:52;;;;;;;6.25;1.80;;;;;;;;;;4956434;28;20041;-71
2023/04/07 03:45:20;;;;;;;5.25;1.58;;;;;;;;;;4960714;28;20030;-72
2023/04/07 03:47:47;;;;;;;4.50;1.30;;;;;;;;;;4961589;28;20042;-71
2023/04/07 03:50:15;;;;;;;9.38;2.20;;;;;;;;;;4963222;28;20461;-71
2023/04/07 03:52:43;;;;;;;6.22;2.08;;;;;;;;;;4946220;28;20043;-72
2023/04/07 03:55:11;;;;;;;10.48;2.80;;;;;;;;;;4958726;28;20034;-72
2023/04/07 03:57:38;;;;;;;8.50;3.17;;;;;;;;;;4960671;28;20122;-72
2023/04/07 04:00:06;;;;;;;10.35;3.60;;;;;;;;;;4939054;28;20030;-71
2023/04/07 04:02:34;;;;;;;10.32;3.28;;;;;;;;;;4959150;28;20034;-71
2023/04/07 04:05:03;;;;;;;9.52;3.05;;;;;;;;;;4952411;28;20336;-71
2023/04/07 04:07:32;;;;;;;8.25;3.10;;;;;;;;;;4939732;28;21418;-73
2023/04/07 04:10:00;;;;;;;8.57;2.78;;;;;;;;;;4955238;28;20026;-71
2023/04/07 04:12:28;;;;;;;9.02;2.63;;;;;;;;;;4942393;28;20039;-72
2023/04/07 04:14:55;;;;;;;8.15;2.80;;;;;;;;;;4954021;28;20533;-71
2023/04/07 04:17:27;;;;;;;7.70;2.70;;;;;;;;;;4959133;28;20458;-71
2023/04/07 04:19:54;;;;;;;9.07;2.67;;;;;;;;;;4955924;28;20034;-71
2023/04/07 04:22:21;;;;;;;;;;;;;;;;;;4963439;28;20507;-71
2023/04/07 04:24:49;;;;;;;;;;;;;;;;;;4942270;28;20320;-70
2023/04/07 04:27:15;;;;;;;6.15;2.25;;;;;;;;;;4959910;28;20422;-72
2023/04/07 04:29:41;;;;;;;8.50;2.00;;;;;;;;;;4961763;28;20096;-73
2023/04/07 04:32:08;;;;;;;7.50;2.17;;;;;;;;;;4957875;28;20038;-72
2023/04/07 04:34:37;;;;;;;8.52;2.10;;;;;;;;;;4930270;28;20484;-70
2023/04/07 04:37:09;;;;;;;6.40;1.75;;;;;;;;;;4959975;28;20702;-70
2023/04/07 04:39:37;;;;;;;5.65;1.80;;;;;;;;;;4958094;28;20182;-71
2023/04/07 04:42:05;;;;;;;6.95;1.75;;;;;;;;;;4958931;28;20034;-71
2023/04/07 04:44:32;;;;;;;9.48;2.67;;;;;;;;;;4956721;28;20054;-71
2023/04/07 04:47:00;;;;;;;6.75;2.00;;;;;;;;;;4957680;28;20547;-71
2023/04/07 04:49:27;;;;;;;14.02;2.47;;;;;;;;;;4956975;28;20123;-71
2023/04/07 04:51:55;;;;;;;14.30;2.90;;;;;;;;;;4955950;28;20324;-71
2023/04/07 04:54:23;;;;;;;13.07;2.72;;;;;;;;;;4953304;28;20026;-71
2023/04/07 04:56:51;;;;;;;8.90;2.00;;;;;;;;;;4952911;28;20496;-70
2023/04/07 04:59:19;;;;;;;9.32;2.10;;;;;;;;;;4957011;28;20027;-71
2023/04/07 05:01:45;;;;;;;8.48;2.10;;;;;;;;;;4959076;28;20542;-71
2023/04/07 05:04:13;;;;;;;8.05;1.70;;;;;;;;;;4955480;28;20534;-71
2023/04/07 05:06:41;;;;;;;5.93;1.70;;;;;;;;;;4947567;28;20053;-71
2023/04/07 05:09:09;;;;;;;5.57;1.70;;;;;;;;;;4953940;28;20053;-71
2023/04/07 05:11:38;;;;;;;6.88;2.08;;;;;;;;;;4959721;28;20050;-71
2023/04/07 05:14:06;;;;;;;5.85;1.70;;;;;;;;;;4938216;28;20042;-72
2023/04/07 05:16:33;;;;;;;7.28;1.90;;;;;;;;;;4958831;28;20082;-72
2023/04/07 05:19:00;;;;;;;5.25;1.67;;;;;;;;;;4941375;28;20406;-73
2023/04/07 05:21:29;;;;;;;5.68;1.60;;;;;;;;;;4956100;28;20594;-73
2023/04/07 05:23:56;;;;;;;5.80;1.50;;;;;;;;;;4955682;28;20527;-72
2023/04/07 05:26:24;;;;;;;6.40;1.40;;;;;;;;;;4941595;28;20177;-72
2023/04/07 05:28:50;;;;;;;6.22;1.52;;;;;;;;;;4952647;28;20038;-73
2023/04/07 05:31:17;;;;;;;;;;;;;;;;;;4956858;28;20042;-73
2023/04/07 05:33:44;;;;;;;6.07;1.70;;;;;;;;;;4958409;28;20182;-72
2023/04/07 05:36:12;;;;;;;9.40;2.17;;;;;;;;;;4954185;28;20105;-72
2023/04/07 05:38:41;;;;;;;6.53;1.63;;;;;;;;;;4945624;28;20038;-72
2023/04/07 05:41:09;;;;;;;5.72;1.77;;;;;;;;;;4939830;28;20407;-73
2023/04/07 05:43:38;;;;;;;5.65;1.50;;;;;;;;;;4943341;28;20053;-71
2023/04/07 05:46:05;;;;;;;8.07;1.92;;;;;;;;;;4951942;28;20078;-70
2023/04/07 05:48:33;;;;;;;7.80;2.38;;;;;;;;;;4952509;28;20047;-72
2023/04/07 05:51:00;;;;;;;8.95;3.30;;;;;;;;;;4957323;28;20117;-72
2023/04/07 05:53:28;;;;;;;9.80;2.80;;;;;;;;;;4958863;28;20307;-72
2023/04/07 05:55:55;;;;;;;9.82;3.58;;;;;;;;;;4938372;28;20026;-72
2023/04/07 05:58:24;;;;;;;9.25;3.35;;;;;;;;;;4960640;28;20517;-73
2023/04/07 06:00:51;;;;;;;15.88;4.45;;;;;;;;;;4956959;28;20470;-72
2023/04/07 06:03:20;;;;;;;9.77;3.30;;;;;;;;;;4956777;28;20141;-71
2023/04/07 06:05:49;;;;;;;11.73;3.05;;;;;;;;;;4960873;28;20073;-72
2023/04/07 06:08:26;;;;;;;13.82;4.10;;;;;;;;;;4938501;28;20553;-72
2023/04/07 06:10:53;;;;;;;8.73;2.63;;;;;;;;;;4951728;28;20031;-71
2023/04/07 06:13:22;;;;;;;8.48;2.70;;;;;;;;;;4954994;28;20331;-71
2023/04/07 06:15:49;;;;;;;6.68;2.40;;;;;;;;;;4936527;28;20401;-71
2023/04/07 06:18:17;;;;;;;8.20;1.95;;;;;;;;;;4953475;28;20033;-71
2023/04/07 06:20:44;;;;;;;6.95;2.00;;;;;;;;;;4957295;28;20421;-71
2023/04/07 06:23:35;;;;;;;7.75;2.15;;;;;;;;;;4925445;28;20065;-73
2023/04/07 06:26:03;;;;;;;8.52;3.13;;;;;;;;;;4937288;28;20030;-71
2023/04/07 06:28:31;;;;;;;6.53;2.35;;;;;;;;;;4958583;28;20950;-71
2023/04/07 06:30:59;;;;;;;8.73;2.70;;;;;;;;;;4939295;28;20956;-71
2023/04/07 06:33:27;;;;;;;7.47;2.25;;;;;;;;;;4954571;28;20217;-71
2023/04/07 06:35:55;;;;;;;9.80;2.17;;;;;;;;;;4955677;28;20584;-71
2023/04/07 06:38:26;;;;;;;8.73;2.22;;;;;;;;;;4954478;28;20031;-71
2023/04/07 06:40:53;;;;;;;8.73;2.65;;;;;;;;;;4954098;28;20038;-73
2023/04/07 06:43:19;;;;;;;7.55;2.40;;;;;;;;;;4959921;28;20388;-71
2023/04/07 06:45:47;;;;;;;5.97;1.70;;;;;;;;;;4949604;28;20776;-71
2023/04/07 06:48:14;;;;;;;7.68;1.98;;;;;;;;;;4964368;28;20109;-71
2023/04/07 06:50:43;;;;;;;5.95;1.98;;;;;;;;;;4956752;28;20135;-71
2023/04/07 06:53:12;;;;;;;8.93;2.30;;;;;;;;;;4954862;28;20224;-73
2023/04/07 06:55:40;;;;;;;6.93;2.08;;;;;;;;;;4958344;28;20035;-71
2023/04/07 06:58:08;;;;;;;6.30;2.00;;;;;;;;;;4954559;28;20027;-71
2023/04/07 07:00:35;;;;;;;7.50;2.25;;;;;;;;;;4958800;28;20038;-71
2023/04/07 07:03:03;;;;;;;10.32;2.20;;;;;;;;;;4935680;28;20525;-71
2023/04/07 07:05:30;;;;;;;8.13;2.10;;;;;;;;;;4952968;28;20046;-73
2023/04/07 07:07:57;;;;;;;8.20;2.65;;;;;;;;;;4938905;28;20283;-72
2023/04/07 07:10:25;;;;;;;9.60;2.40;;;;;;;;;;4958475;28;20383;-71
2023/04/07 07:12:54;;;;;;;8.77;2.40;;;;;;;;;;4955737;28;20152;-71
2023/04/07 07:15:23;;;;;;;9.27;2.55;;;;;;;;;;4959320;28;20030;-71
2023/04/07 07:17:50;;;;;;;12.10;2.55;;;;;;;;;;4938581;28;20032;-71
2023/04/07 07:20:17;;;;;;;6.70;2.13;;;;;;;;;;4944929;28;20563;-71
2023/04/07 07:22:45;;;;;;;7.90;1.83;;;;;;;;;;4947046;28;20037;-71
2023/04/07 07:25:12;;;;;;;9.40;2.03;;;;;;;;;;4958372;28;20073;-71
2023/04/07 07:27:40;;;;;;;7.95;1.92;;;;;;;;;;4962104;28;20035;-72
2023/04/07 07:30:08;;;;;;;10.93;2.40;;;;;;;;;;4958359;28;20370;-72
2023/04/07 07:32:35;;;;;;;10.75;2.15;;;;;;;;;;4955726;28;20041;-71
2023/04/07 07:35:05;;;;;;;8.50;2.10;;;;;;;;;;4956080;28;20117;-70
2023/04/07 07:37:34;;;;;;;9.15;2.05;;;;;;;;;;4958733;28;20030;-71
2023/04/07 07:40:11;;;;;;;10.77;1.90;;;;;;;;;;4958527;28;20120;-71
2023/04/07 07:42:40;;;;;;;5.53;1.70;;;;;;;;;;4947699;28;21470;-71
2023/04/07 07:45:07;;;;;;;9.18;2.03;;;;;;;;;;4958060;28;20043;-71
2023/04/07 07:47:36;;;;;;;7.40;1.63;;;;;;;;;;4943866;28;20030;-71
2023/04/07 07:50:05;;;;;;;7.20;1.92;;;;;;;;;;4954357;28;20153;-72
2023/04/07 07:52:34;;;;;;;8.95;1.92;;;;;;;;;;4961342;28;20457;-73
2023/04/07 07:55:01;;;;;;;5.10;1.45;;;;;;;;;;4958322;28;20125;-73
2023/04/07 07:57:30;;;;;;;5.03;1.30;;;;;;;;;;4962472;28;20026;-73
2023/04/07 07:59:58;;;;;;;5.40;1.40;;;;;;;;;;4943030;28;20069;-72
2023/04/07 08:02:30;;;;;;;5.93;1.60;;;;;;;;;;4959348;28;20203;-72
2023/04/07 08:04:59;;;;;;;5.00;1.35;;;;;;;;;;4962611;28;20547;-74
2023/04/07 08:07:27;;;;;;;4.30;1.30;;;;;;;;;;4963955;28;20366;-71
2023/04/07 08:09:56;;;;;;;6.18;1.70;;;;;;;;;;4927122;28;20043;-72
2023/04/07 08:12:24;;;;;;;7.68;2.40;;;;;;;;;;4962552;28;20483;-71
2023/04/07 08:14:53;;;;;;;10.18;3.42;;;;;;;;;;4960108;28;20107;-71
2023/04/07 08:17:20;;;;;;;13.60;4.25;;;;;;;;;;4920624;28;20051;-71
2023/04/07 08:19:48;;;;;;;10.40;3.83;;;;;;;;;;4921736;28;20553;-71
2023/04/07 08:22:18;;;;;;;9.45;3.95;;;;;;;;;;4909073;29;20114;-71
2023/04/07 08:24:46;;;;;;;10.25;4.53;;;;;;;;;;4903286;29;20182;-73
2023/04/07 08:27:20;;;;;;;9.32;3.60;;;;;;;;;;4917845;28;20158;-72
2023/04/07 08:30:07;;;;;;;7.97;3.05;;;;;;;;;;4909685;29;20106;-71
2023/04/07 08:32:40;;;;;;;7.03;2.60;;;;;;;;;;4915229;28;20553;-71
2023/04/07 08:35:08;;;;;;;8.27;2.92;;;;;;;;;;4907161;28;20413;-71
2023/04/07 08:37:37;;;;;;;10.95;4.00;;;;;;;;;;4917452;28;20047;-71
2023/04/07 08:40:06;;;;;;;8.65;3.67;;;;;;;;;;4894258;29;20031;-71
2023/04/07 08:42:34;;;;;;;9.90;4.00;;;;;;;;;;4908165;28;20027;-71
2023/04/07 08:45:06;;;;;;;10.45;3.38;;;;;;;;;;4916466;28;20367;-71
2023/04/07 08:47:37;;;;;;;10.73;3.80;;;;;;;;;;4920528;28;20591;-71
2023/04/07 08:50:07;;;;;;;8.80;3.20;;;;;;;;;;4903775;29;20555;-71
2023/04/07 08:52:40;;;;;;;8.73;3.15;;;;;;;;;;4903232;29;20054;-72
2023/04/07 08:55:07;;;;;;;10.63;2.88;;;;;;;;;;4917418;28;20500;-72
2023/04/07 08:57:36;;;;;;;8.05;2.53;;;;;;;;;;4903662;29;20353;-72
2023/04/07 09:00:04;;;;;;;10.48;1.90;;;;;;;;;;4916738;28;20358;-72
2023/04/07 09:02:37;;;;;;;7.00;1.58;;;;;;;;;;4943264;28;20485;-74
2023/04/07 09:05:07;;;;;;;5.57;1.70;;;;;;;;;;4954458;28;20037;-72
2023/04/07 09:07:52;;;;;;;5.70;1.40;;;;;;;;;;4960639;28;20030;-72
2023/04/07 09:10:21;;;;;;;5.72;1.50;;;;;;;;;;4956887;28;20479;-72
2023/04/07 09:12:50;;;;;;;4.15;1.30;;;;;;;;;;4939774;28;20473;-71
2023/04/07 09:15:19;;;;;;;5.47;1.20;;;;;;;;;;4953827;28;20035;-71
2023/04/07 09:17:47;;;;;;;3.75;1.13;;;;;;;;;;4953061;28;20054;-71
2023/04/07 09:20:14;;;;;;;4.20;0.90;;;;;;;;;;4938731;28;20049;-71
2023/04/07 09:22:46;;;;;;;4.63;1.33;;;;;;;;;;4956111;28;20029;-71
2023/04/07 09:25:17;;;;;;;7.35;1.50;;;;;;;;;;4958788;28;20055;-71
2023/04/07 09:28:02;;;;;;;5.65;1.40;;;;;;;;;;4956669;28;20129;-71
2023/04/07 09:30:30;;;;;;;5.38;1.60;;;;;;;;;;4957841;28;20026;-74
2023/04/07 09:32:57;;;;;;;5.68;1.50;;;;;;;;;;4941770;28;20070;-71
2023/04/07 09:35:27;;;;;;;4.93;1.48;;;;;;;;;;4932282;28;20034;-73
2023/04/07 09:38:06;;;;;;;5.30;1.58;;;;;;;;;;4955816;28;20480;-71
2023/04/07 09:40:33;;;;;;;4.60;1.40;;;;;;;;;;4957340;28;20423;-71
2023/04/07 09:43:02;;;;;;;6.45;1.55;;;;;;;;;;4960418;28;20042;-72
2023/04/07 09:45:31;;;;;;;5.95;1.45;;;;;;;;;;4944082;28;20041;-72
2023/04/07 09:47:58;;;;;;;4.78;1.33;;;;;;;;;;4956256;28;20069;-71
2023/04/07 09:50:36;;;;;;;5.43;1.30;;;;;;;;;;4956852;28;20039;-71
2023/04/07 09:53:05;;;;;;;6.53;1.70;;;;;;;;;;4952014;28;20086;-70
2023/04/07 09:55:32;;;;;;;7.60;1.85;;;;;;;;;;4956973;28;20027;-70
2023/04/07 09:58:01;;;;;;;6.05;1.38;;;;;;;;;;4947410;28;20039;-70
2023/04/07 10:00:30;;;;;;;5.72;1.50;;;;;;;;;;4944398;28;20030;-70
2023/04/07 10:02:57;;;;;;;3.67;1.10;;;;;;;;;;4947465;28;20035;-72
2023/04/07 10:05:25;;;;;;;5.78;1.35;;;;;;;;;;4956458;28;20046;-70
2023/04/07 10:07:55;;;;;;;4.85;1.10;;;;;;;;;;4934867;28;20147;-70
2023/04/07 10:10:23;;;;;;;5.95;1.30;;;;;;;;;;4940673;28;20629;-72
2023/04/07 10:12:53;;;;;;;4.70;1.25;;;;;;;;;;4953615;28;20042;-70
2023/04/07 10:15:21;;;;;;;5.22;1.45;;;;;;;;;;4944313;28;20058;-71
2023/04/07 10:17:49;;;;;;;4.55;1.20;;;;;;;;;;4963429;28;20030;-71
2023/04/07 10:20:19;;;;;;;4.65;1.30;;;;;;;;;;4932705;28;20366;-71
2023/04/07 10:22:48;;;;;;;4.80;1.00;;;;;;;;;;4963767;28;20130;-71
2023/04/07 10:25:20;;;;;;;5.03;1.05;;;;;;;;;;4967862;28;20496;-72
2023/04/07 10:27:54;;;;;;;4.97;1.05;;;;;;;;;;4950798;28;20161;-71
2023/04/07 10:30:26;;;;;;;4.03;1.13;;;;;;;;;;4960909;28;20023;-70
2023/04/07 10:32:54;;;;;;;7.50;1.60;;;;;;;;;;4959611;28;20050;-70
2023/04/07 10:35:22;;;;;;;4.78;1.30;;;;;;;;;;4963398;28;20540;-70
2023/04/07 10:38:07;;;;;;;4.60;1.20;;;;;;;;;;4943201;28;20042;-70
2023/04/07 10:40:35;;;;;;;3.78;1.00;;;;;;;;;;4960558;28;20592;-70
2023/04/07 10:43:10;;;;;;;3.47;0.90;;;;;;;;;;4942789;28;20093;-71
2023/04/07 10:45:53;;;;;;;4.05;1.08;;;;;;;;;;4949872;28;20062;-71
2023/04/07 10:48:22;;;;;;;3.33;1.08;;;;;;;;;;4962121;28;20058;-72
2023/04/07 10:51:16;;;;;;;4.35;1.02;;;;;;;;;;4960044;28;20511;-70
2023/04/07 10:54:03;;;;;;;4.13;1.13;;;;;;;;;;4959533;28;20101;-70
2023/04/07 10:56:50;;;;;;;5.60;1.10;;;;;;;;;;4963631;28;20018;-70
2023/04/07 10:59:26;;;;;;;5.05;1.13;;;;;;;;;;4963688;28;20104;-70
2023/04/07 11:02:16;;;;;;;4.35;1.05;;;;;;;;;;4961866;28;20030;-70
2023/04/07 11:04:46;;;;;;;4.00;0.98;;;;;;;;;;4940936;28;20042;-70
2023/04/07 11:07:15;;;;;;;5.00;1.30;;;;;;;;;;4962773;28;20447;-71
2023/04/07 11:09:44;;;;;;;5.68;1.30;;;;;;;;;;4961932;28;20391;-70
2023/04/07 11:12:25;;;;;;;3.50;1.05;;;;;;;;;;4960963;28;20810;-70
2023/04/07 11:14:53;;;;;;;5.13;1.23;;;;;;;;;;4963704;28;20059;-70
2023/04/07 11:17:21;;;;;;;4.78;1.20;;;;;;;;;;4946585;28;20027;-71
2023/04/07 11:19:53;;;;;;;5.70;1.42;;;;;;;;;;4957193;28;20027;-70
2023/04/07 11:22:20;;;;;;;4.35;1.05;;;;;;;;;;4946839;28;20508;-70
2023/04/07 11:24:50;;;;;;;11.07;1.77;;;;;;;;;;4947959;28;20376;-71
2023/04/07 11:27:16;;;;;;;4.68;1.00;;;;;;;;;;4941156;28;20516;-70
2023/04/07 11:29:44;;;;;;;4.25;1.08;;;;;;;;;;4947135;28;20045;-71
2023/04/07 11:32:11;;;;;;;6.57;1.00;;;;;;;;;;4939634;28;20061;-70
2023/04/07 11:34:39;;;;;;;6.15;1.10;;;;;;;;;;4942276;28;20501;-70
2023/04/07 11:37:23;;;;;;;8.25;1.55;;;;;;;;;;4941600;28;20186;-71
2023/04/07 11:39:54;;;;;;;6.82;1.55;;;;;;;;;;4958223;28;20034;-69
2023/04/07 11:42:36;;;;;;;4.80;1.10;;;;;;;;;;4943623;28;20050;-71
2023/04/07 11:45:03;;;;;;;5.05;0.90;;;;;;;;;;4960035;28;20084;-73
2023/04/07 11:47:39;;;;;;;4.55;1.08;;;;;;;;;;4958074;28;20042;-70
2023/04/07 11:50:07;;;;;;;5.75;1.10;;;;;;;;;;4956968;28;20694;-71
2023/04/07 11:52:47;;;;;;;5.70;1.17;;;;;;;;;;4960021;28;20536;-70
2023/04/07 11:55:21;;;;;;;3.15;0.85;;;;;;;;;;4957295;28;20042;-71
2023/04/07 11:57:52;;;;;;;3.85;1.00;;;;;;;;;;4961731;28;20215;-71
2023/04/07 12:00:20;;;;;;;3.47;0.88;;;;;;;;;;4941807;28;20030;-71
2023/04/07 12:02:48;;;;;;;4.00;0.80;;;;;;;;;;4944883;28;20077;-71
2023/04/07 12:05:15;;;;;;;2.40;0.63;;;;;;;;;;4948226;28;20563;-71
2023/04/07 12:07:52;;;;;;;5.95;1.50;;;;;;;;;;4942012;28;20026;-71
2023/04/07 12:10:26;;;;;;;3.90;1.20;;;;;;;;;;4956674;28;20030;-71
2023/04/07 12:12:54;;;;;;;5.75;1.90;;;;;;;;;;4924909;28;20034;-70
2023/04/07 12:15:20;;;;;;;8.13;1.10;;;;;;;;;;4944414;28;20368;-70
2023/04/07 12:17:49;;;;;;;4.00;1.10;;;;;;;;;;4958719;28;20053;-71
2023/04/07 12:20:15;;;;;;;3.33;0.80;;;;;;;;;;4959508;28;20022;-70
2023/04/07 12:22:43;;;;;;;6.05;0.93;;;;;;;;;;4963702;28;20436;-70
2023/04/07 12:25:10;;;;;;;3.42;0.60;;;;;;;;;;4957904;28;20565;-71
2023/04/07 12:27:37;;;;;;;5.32;0.80;;;;;;;;;;4963058;28;20041;-71
2023/04/07 12:30:05;;;;;;;3.15;0.90;;;;;;;;;;4953243;28;20075;-71
2023/04/07 12:32:34;;;;;;;4.07;0.88;;;;;;;;;;4959618;28;20464;-71
2023/04/07 12:35:01;;;;;;;3.90;0.80;;;;;;;;;;4956968;28;20566;-70
2023/04/07 12:37:28;;;;;;;5.00;0.80;;;;;;;;;;4955451;28;20038;-70
2023/04/07 12:39:55;;;;;;;4.70;1.10;;;;;;;;;;4936048;28;20461;-70
2023/04/07 12:42:23;;;;;;;2.10;0.68;;;;;;;;;;4955595;28;20026;-72
2023/04/07 12:44:50;;;;;;;3.33;0.95;;;;;;;;;;4958657;28;20056;-72
2023/04/07 12:47:18;;;;;;;3.97;1.00;;;;;;;;;;4962319;28;20038;-72
2023/04/07 12:49:45;;;;;;;3.65;0.90;;;;;;;;;;4962675;28;20042;-72
2023/04/07 12:52:12;;;;;;;2.80;0.70;;;;;;;;;;4941444;28;20145;-72
2023/04/07 12:54:41;;;;;;;4.13;1.40;;;;;;;;;;4958681;28;20031;-70
2023/04/07 12:57:09;;;;;;;4.88;1.50;;;;;;;;;;4945612;28;20038;-72
2023/04/07 12:59:36;;;;;;;5.85;1.85;;;;;;;;;;4942451;28;20077;-71
2023/04/07 13:02:05;;;;;;;4.78;1.48;;;;;;;;;;4943156;28;20033;-70
2023/04/07 13:04:33;;;;;;;3.53;1.17;;;;;;;;;;4960636;28;20030;-70
2023/04/07 13:07:02;;;;;;;5.25;1.48;;;;;;;;;;4958618;28;20065;-70
2023/04/07 13:09:29;;;;;;;6.82;1.60;;;;;;;;;;4958302;28;20040;-72
2023/04/07 13:11:57;;;;;;;5.50;1.63;;;;;;;;;;4935709;28;20704;-72
2023/04/07 13:14:23;;;;;;;6.75;1.50;;;;;;;;;;4955787;28;20552;-71
2023/04/07 13:16:51;;;;;;;3.90;1.38;;;;;;;;;;4944135;28;20032;-71
2023/04/07 13:19:18;;;;;;;5.43;1.30;;;;;;;;;;4943589;28;20030;-71
2023/04/07 13:21:46;;;;;;;2.72;0.98;;;;;;;;;;4943655;28;20027;-72
2023/04/07 13:24:13;;;;;;;4.78;1.00;;;;;;;;;;4959826;28;20279;-71
2023/04/07 13:26:41;;;;;;;4.25;1.10;;;;;;;;;;4956744;28;20190;-71
2023/04/07 13:29:08;;;;;;;4.43;1.15;;;;;;;;;;4957559;28;20130;-71
2023/04/07 13:31:36;;;;;;;6.13;1.10;;;;;;;;;;4958598;28;20046;-72
2023/04/07 13:34:03;;;;;;;4.82;1.35;;;;;;;;;;4938653;28;20318;-73
2023/04/07 13:36:31;;;;;;;4.35;1.00;;;;;;;;;;4943339;28;20078;-72
2023/04/07 13:38:58;;;;;;;4.93;1.25;;;;;;;;;;4949955;28;20026;-72
2023/04/07 13:41:25;;;;;;;3.83;1.08;;;;;;;;;;4956657;28;20532;-72
2023/04/07 13:43:52;;;;;;;6.30;1.05;;;;;;;;;;4955328;28;20137;-71
2023/04/07 13:46:19;;;;;;;5.63;0.90;;;;;;;;;;4944591;28;20373;-72
2023/04/07 13:48:46;;;;;;;3.58;1.00;;;;;;;;;;4944859;28;20077;-71
2023/04/07 13:51:14;;;;;;;3.63;0.98;;;;;;;;;;4956428;28;20041;-71
2023/04/07 13:53:41;;;;;;;3.75;0.90;;;;;;;;;;4939690;28;20527;-70
2023/04/07 13:56:09;;;;;;;4.07;0.90;;;;;;;;;;4925799;28;24577;-70
2023/04/07 13:58:39;;;;;;;6.30;1.30;;;;;;;;;;4940846;28;20038;-71
2023/04/07 14:01:07;;;;;;;5.15;1.10;;;;;;;;;;4957706;28;20126;-70
2023/04/07 14:03:36;;;;;;;4.38;1.00;;;;;;;;;;4954927;28;20031;-70
2023/04/07 14:06:04;;;;;;;5.72;1.45;;;;;;;;;;4953790;28;20144;-72
2023/04/07 14:08:31;;;;;;;3.78;1.00;;;;;;;;;;4940671;28;20504;-71
2023/04/07 14:10:58;;;;;;;5.32;1.40;;;;;;;;;;4933040;28;20444;-71
2023/04/07 14:13:26;;;;;;;5.40;1.33;;;;;;;;;;4956444;28;20474;-71
2023/04/07 14:15:54;;;;;;;4.25;1.17;;;;;;;;;;4953282;28;20035;-71
2023/04/07 14:18:22;;;;;;;4.85;1.20;;;;;;;;;;4953368;28;20361;-71
2023/04/07 14:20:50;;;;;;;3.35;0.75;;;;;;;;;;4939110;28;20153;-71
2023/04/07 14:23:16;;;;;;;2.95;1.10;;;;;;;;;;4959076;28;20623;-71
2023/04/07 14:25:44;;;;;;;5.07;0.95;;;;;;;;;;4955882;28;20054;-71
2023/04/07 14:28:11;;;;;;;3.55;1.00;;;;;;;;;;4952587;28;20050;-71
2023/04/07 14:30:39;;;;;;;3.00;0.90;;;;;;;;;;4926402;28;20603;-71
2023/04/07 14:33:06;;;;;;;5.65;1.50;;;;;;;;;;4938525;28;20030;-71
2023/04/07 14:35:37;;;;;;;6.25;1.60;;;;;;;;;;4938593;28;20396;-71
2023/04/07 14:38:05;;;;;;;4.53;1.30;;;;;;;;;;4949782;28;20572;-72
2023/04/07 14:40:32;;;;;;;7.00;1.30;;;;;;;;;;4955013;28;20148;-69
2023/04/07 14:43:00;;;;;;;6.60;2.45;;;;;;;;;;4954888;28;20022;-69
2023/04/07 14:45:27;;;;;;;7.80;3.28;;;;;;;;;;4939765;28;20066;-68
2023/04/07 14:47:55;;;;;;;5.82;1.70;;;;;;;;;;4952198;28;20113;-68
2023/04/07 14:50:22;;;;;;;6.03;1.20;;;;;;;;;;4957894;28;20569;-67
2023/04/07 14:52:50;;;;;;;4.38;1.10;;;;;;;;;;4939722;28;20360;-67
2023/04/07 14:55:17;;;;;;;5.90;1.40;;;;;;;;;;4955962;28;20035;-69
2023/04/07 14:57:44;;;;;;;5.13;1.58;;;;;;;;;;4961237;28;20026;-69